サントメ の空港の天気 - METARとTAF

サントメ国際空港 ( FPST / TMS ) - サントメ・プリンシペ サントメ
飛行場実況気象(Metar)
観測時間04/09 19:00 WAT (04/09 18:00 UTC)
風向・風速南南西 2m/s
視程10km以上
天気現象
少しの雲 雲底高度 760m
全天の4割程度の雲 雲底高度 1220m
気温26℃
湿度94%
気圧1009hPa
METARFPST 091800Z 21004KT 9999 FEW025CB SCT040 26/25 Q1009 NOSIG
過去の天気等 Google飛行場航空写真 Wunderground天気予報

過去48時間のMETAR

飛行場予報(TAF)
データがありません